Terminal Aerodrome Forecast
Issued by NWS

Home | Current Version | Previous Version | Text Only | Print | Product List | Glossary On
Versions: 1 2 3 4 5 6 7 8 9 10 11 12 13 14 15
000
FTUS42 KJAX 302340
TAFVQQ
TAF
KVQQ 302340Z 3100/3124 00000KT P6SM BKN250
     FM311300 01006KT P6SM SCT150 BKN250
     FM311700 04009KT P6SM SCT150 BKN250
     FM312200 07006KT P6SM FEW030 BKN150 BKN250=

USA.gov is the U.S. government's official web portal to all federal, state and local government web resources and services.